Time;durP1;ratioP1;P1;durP2;ratioP2;P2;SDS_P1;SDS_P2;PMS_P1;PMS_P2;Temp;Humidity;BMP_temperature;BMP_pressure;BME280_temperature;BME280_humidity;BME280_pressure;Samples;Min_cycle;Max_cycle;Signal;HPM_P1;HPM_P2
2021/10/27 00:01:18;;;;;;;21.50;12.27;;;;;;;10.52;100.00;100825.16;7398956;19;20445;-50
2021/10/27 00:03:50;;;;;;;29.03;13.87;;;;;;;10.55;100.00;100832.16;7404199;19;20415;-49
2021/10/27 00:06:19;;;;;;;27.37;13.50;;;;;;;10.57;100.00;100823.66;7400562;19;20914;-48
2021/10/27 00:08:49;;;;;;;23.57;13.53;;;;;;;10.60;100.00;100833.19;7403616;19;20669;-47
2021/10/27 00:11:19;;;;;;;23.67;14.10;;;;;;;10.60;100.00;100839.25;7394312;19;20427;-45
2021/10/27 00:13:48;;;;;;;24.87;13.70;;;;;;;10.63;100.00;100841.09;7403550;19;20406;-48
2021/10/27 00:16:18;;;;;;;21.97;11.87;;;;;;;10.70;100.00;100857.69;7397070;19;20423;-46
2021/10/27 00:18:50;;;;;;;30.00;13.10;;;;;;;10.71;100.00;100855.19;7403197;19;20497;-48
2021/10/27 00:21:19;;;;;;;27.67;14.20;;;;;;;10.76;100.00;100866.59;7394587;19;20431;-49
2021/10/27 00:23:49;;;;;;;25.60;13.37;;;;;;;10.78;100.00;100867.53;7402877;19;20384;-49
2021/10/27 00:26:19;;;;;;;29.60;12.83;;;;;;;10.80;100.00;100888.25;7396816;19;20419;-51
2021/10/27 00:28:48;;;;;;;38.83;14.73;;;;;;;10.77;100.00;100888.16;7402916;19;20384;-53
2021/10/27 00:31:18;;;;;;;29.10;13.50;;;;;;;10.79;100.00;100902.88;7394574;19;20421;-51
2021/10/27 00:33:50;;;;;;;23.53;14.37;;;;;;;10.78;100.00;100906.25;7402666;19;20388;-54
2021/10/27 00:36:19;;;;;;;29.73;13.53;;;;;;;10.75;100.00;100907.81;7395877;19;20427;-52
2021/10/27 00:38:49;;;;;;;18.63;10.60;;;;;;;10.74;100.00;100903.47;7402871;19;20464;-49
2021/10/27 00:41:18;;;;;;;33.37;15.87;;;;;;;10.72;100.00;100902.53;7393830;19;20450;-52
2021/10/27 00:43:48;;;;;;;26.10;12.97;;;;;;;10.72;100.00;100899.97;7403024;19;20705;-51
2021/10/27 00:46:24;;;;;;;26.33;16.40;;;;;;;10.73;100.00;100893.97;7396001;19;20478;-51
2021/10/27 00:48:57;;;;;;;29.47;14.93;;;;;;;10.72;100.00;100893.06;7402158;19;20383;-52
2021/10/27 00:51:26;;;;;;;29.93;16.30;;;;;;;10.73;100.00;100887.13;7399818;19;20439;-47
2021/10/27 00:53:56;;;;;;;32.37;15.70;;;;;;;10.73;100.00;100891.41;7403496;19;20402;-51
2021/10/27 00:56:25;;;;;;;25.30;12.10;;;;;;;10.72;100.00;100887.06;7401735;19;20411;-51
2021/10/27 00:58:55;;;;;;;27.17;15.87;;;;;;;10.75;100.00;100889.75;7402275;19;20388;-54
2021/10/27 01:01:25;;;;;;;27.80;15.20;;;;;;;10.80;100.00;100885.69;7398727;19;20483;-46
2021/10/27 01:03:57;;;;;;;31.67;15.00;;;;;;;10.83;100.00;100882.34;7404832;19;20414;-46
2021/10/27 01:06:27;;;;;;;23.63;13.13;;;;;;;10.80;100.00;100893.41;7398637;19;20491;-46
2021/10/27 01:08:56;;;;;;;27.60;15.50;;;;;;;10.84;100.00;100895.31;7401859;19;20410;-46
2021/10/27 01:11:26;;;;;;;29.83;15.80;;;;;;;10.84;100.00;100897.00;7399403;19;20452;-47
2021/10/27 01:13:55;;;;;;;29.80;13.67;;;;;;;10.88;100.00;100899.78;7402010;19;20390;-45
2021/10/27 01:16:25;;;;;;;27.50;15.13;;;;;;;10.88;100.00;100901.50;7400949;19;20474;-46
2021/10/27 01:18:57;;;;;;;32.07;15.07;;;;;;;10.85;100.00;100889.34;7401605;19;20384;-45
2021/10/27 01:21:31;;;;;;;27.40;13.60;;;;;;;10.90;100.00;100890.44;7395223;19;20699;-45
2021/10/27 01:24:01;;;;;;;22.67;11.60;;;;;;;10.91;100.00;100899.03;7399921;19;20718;-46
2021/10/27 01:26:31;;;;;;;25.73;14.80;;;;;;;10.91;100.00;100899.03;7401171;19;20463;-47
2021/10/27 01:29:01;;;;;;;28.90;14.33;;;;;;;10.94;100.00;100897.47;7394656;19;20394;-47
2021/10/27 01:31:30;;;;;;;27.50;15.03;;;;;;;10.94;100.00;100901.75;7398930;19;20419;-47
2021/10/27 01:34:00;;;;;;;25.30;14.40;;;;;;;10.92;100.00;100903.41;7394265;19;20388;-46
2021/10/27 01:36:32;;;;;;;27.90;14.23;;;;;;;10.94;100.00;100897.47;7398687;19;20392;-47
2021/10/27 01:39:02;;;;;;;29.10;15.57;;;;;;;10.96;100.00;100907.00;7391762;19;20431;-48
2021/10/27 01:41:31;;;;;;;23.47;11.17;;;;;;;10.99;100.00;100909.69;7398363;19;20427;-47
2021/10/27 01:44:01;;;;;;;27.73;14.93;;;;;;;10.99;100.00;100915.75;7394588;19;20851;-46
2021/10/27 01:46:32;;;;;;;37.40;14.73;;;;;;;11.03;100.00;100916.75;7400380;19;20394;-53
2021/10/27 01:49:02;;;;;;;24.87;13.87;;;;;;;11.03;100.00;100922.78;7394057;19;20436;-48
2021/10/27 01:51:35;;;;;;;26.30;13.73;;;;;;;11.05;100.00;100916.00;7398551;19;20425;-46
2021/10/27 01:54:05;;;;;;;33.07;14.93;;;;;;;11.09;100.00;100922.19;7394081;19;20448;-46
2021/10/27 01:56:35;;;;;;;15.30;7.70;;;;;;;11.15;100.00;100916.38;7399746;19;20896;-46
2021/10/27 01:59:05;;;;;;;24.40;13.00;;;;;;;11.19;100.00;100919.16;7397132;19;20404;-47
2021/10/27 02:01:35;;;;;;;27.23;14.30;;;;;;;11.20;100.00;100914.88;7397502;19;20495;-46
2021/10/27 02:04:04;;;;;;;24.97;14.30;;;;;;;11.21;100.00;100920.13;7398097;19;20700;-51
2021/10/27 02:06:37;;;;;;;25.27;14.13;;;;;;;11.19;100.00;100919.16;7399579;19;20388;-47
2021/10/27 02:09:06;;;;;;;20.77;10.30;;;;;;;11.19;100.00;100919.16;7392313;19;20392;-51
2021/10/27 02:11:36;;;;;;;30.07;13.57;;;;;;;11.28;100.00;100922.97;7397605;19;20415;-50
2021/10/27 02:14:05;;;;;;;23.00;12.10;;;;;;;11.27;100.00;100926.38;7396953;19;20408;-50
2021/10/27 02:16:35;;;;;;;29.07;15.47;;;;;;;11.26;100.00;100925.47;7399223;19;20863;-49
2021/10/27 02:19:06;;;;;;;25.33;15.47;;;;;;;11.28;100.00;100929.00;7393369;19;20678;-48
2021/10/27 02:21:38;;;;;;;30.97;16.60;;;;;;;11.31;100.00;100934.31;7397061;19;20487;-45
2021/10/27 02:24:08;;;;;;;32.13;16.60;;;;;;;11.29;100.00;100935.06;7392632;19;20459;-46
2021/10/27 02:26:37;;;;;;;32.90;16.53;;;;;;;11.28;100.00;100936.75;7399090;19;20528;-47
2021/10/27 02:29:06;;;;;;;37.10;17.90;;;;;;;11.30;100.00;100939.41;7393046;19;20451;-52
2021/10/27 02:31:36;;;;;;;30.43;15.63;;;;;;;11.31;100.00;100938.56;7396889;19;20483;-45
2021/10/27 02:34:06;;;;;;;27.97;14.33;;;;;;;11.31;100.00;100935.97;7392394;19;20448;-48
2021/10/27 02:36:38;;;;;;;30.03;15.30;;;;;;;11.30;100.00;100939.41;7398751;19;20391;-46
2021/10/27 02:39:08;;;;;;;31.33;16.10;;;;;;;11.29;100.00;100929.88;7393154;19;20390;-47
2021/10/27 02:41:38;;;;;;;34.33;15.23;;;;;;;11.33;100.00;100931.75;7396820;19;20416;-47
2021/10/27 02:44:07;;;;;;;26.30;12.70;;;;;;;11.32;100.00;100930.00;7393034;19;20913;-48
2021/10/27 02:46:37;;;;;;;29.63;17.20;;;;;;;11.34;100.00;100923.22;7400897;19;20676;-46
2021/10/27 02:49:06;;;;;;;32.70;18.03;;;;;;;11.32;100.00;100917.09;7399957;19;20398;-49
2021/10/27 02:51:38;;;;;;;32.90;15.67;;;;;;;11.32;100.00;100924.84;7403220;19;20411;-47
2021/10/27 02:54:08;;;;;;;27.63;15.53;;;;;;;11.32;100.00;100920.56;7403427;19;20395;-46
2021/10/27 02:56:37;;;;;;;25.20;13.83;;;;;;;11.32;100.00;100919.66;7405924;19;20477;-46
2021/10/27 02:59:07;;;;;;;29.97;17.67;;;;;;;11.34;100.00;100921.50;7399987;19;20451;-46
2021/10/27 03:01:36;;;;;;;40.47;18.90;;;;;;;11.33;100.00;100911.97;7402951;19;20420;-46
2021/10/27 03:04:06;;;;;;;36.67;18.03;;;;;;;11.32;100.00;100909.34;7399837;19;20860;-48
2021/10/27 03:06:39;;;;;;;27.40;14.27;;;;;;;11.33;100.00;100924.91;7409509;19;20471;-46
2021/10/27 03:09:09;;;;;;;34.37;16.60;;;;;;;11.37;100.00;100914.72;7399309;19;20458;-46
2021/10/27 03:11:38;;;;;;;38.10;18.53;;;;;;;11.32;100.00;100910.22;7402836;19;20423;-48
2021/10/27 03:14:09;;;;;;;33.50;17.43;;;;;;;11.33;100.00;100905.94;7402302;19;20395;-46
2021/10/27 03:16:39;;;;;;;26.20;13.97;;;;;;;11.32;100.00;100906.75;7405393;19;20447;-49
2021/10/27 03:19:08;;;;;;;36.13;19.17;;;;;;;11.35;100.00;100910.34;7399447;19;20388;-46
2021/10/27 03:21:40;;;;;;;28.63;16.80;;;;;;;11.35;100.00;100919.81;7402381;19;20427;-48
2021/10/27 03:24:10;;;;;;;33.03;17.47;;;;;;;11.35;100.00;100922.38;7401397;19;20399;-46
2021/10/27 03:26:39;;;;;;;31.73;17.30;;;;;;;11.37;100.00;100923.31;7405149;19;20416;-46
2021/10/27 03:29:09;;;;;;;34.53;17.87;;;;;;;11.36;100.00;100921.56;7398854;19;20388;-46
2021/10/27 03:31:39;;;;;;;35.10;17.40;;;;;;;11.38;100.00;100927.66;7402265;19;20860;-46
2021/10/27 03:34:09;;;;;;;35.10;19.33;;;;;;;11.38;100.00;100926.81;7398946;19;20384;-47
2021/10/27 03:36:41;;;;;;;32.77;15.90;;;;;;;11.36;100.00;100921.56;7406476;19;20455;-46
2021/10/27 03:39:11;;;;;;;30.60;17.80;;;;;;;11.39;100.00;100933.72;7398795;19;20902;-46
2021/10/27 03:41:41;;;;;;;34.27;18.93;;;;;;;11.37;100.00;100938.81;7402090;19;20892;-48
2021/10/27 03:44:11;;;;;;;33.30;17.17;;;;;;;11.40;100.00;100938.97;7398640;19;20651;-48
2021/10/27 03:46:40;;;;;;;35.70;16.90;;;;;;;11.41;100.00;100945.00;7404383;19;20391;-50
2021/10/27 03:49:10;;;;;;;35.77;20.87;;;;;;;11.41;100.00;100938.16;7398924;19;20410;-51
2021/10/27 03:51:42;;;;;;;38.73;18.10;;;;;;;11.40;100.00;100938.97;7404832;19;20427;-53
2021/10/27 03:54:11;;;;;;;33.80;19.30;;;;;;;11.42;100.00;100945.06;7400045;19;20470;-46
2021/10/27 03:56:41;;;;;;;35.70;18.20;;;;;;;11.42;100.00;100944.16;7404214;19;20451;-47
2021/10/27 03:59:11;;;;;;;34.40;18.47;;;;;;;11.43;100.00;100957.16;7396352;19;20391;-50
2021/10/27 04:01:40;;;;;;;33.50;18.23;;;;;;;11.43;100.00;100958.88;7401384;19;20415;-51
2021/10/27 04:04:10;;;;;;;32.60;18.73;;;;;;;11.43;100.00;100964.91;7398119;19;20380;-49
2021/10/27 04:06:42;;;;;;;31.63;19.03;;;;;;;11.45;100.00;100964.97;7403812;19;20392;-49
2021/10/27 04:09:12;;;;;;;32.97;17.27;;;;;;;11.44;100.00;100965.81;7398288;19;20443;-53
2021/10/27 04:11:41;;;;;;;36.57;18.43;;;;;;;11.43;100.00;100964.91;7401219;19;20420;-49
2021/10/27 04:14:11;;;;;;;38.50;19.17;;;;;;;11.41;100.00;100970.84;7400360;19;20388;-48
2021/10/27 04:16:40;;;;;;;29.63;17.60;;;;;;;11.41;100.00;100958.81;7403572;19;20394;-53
2021/10/27 04:19:10;;;;;;;33.90;18.80;;;;;;;11.43;100.00;100958.88;7397140;19;20397;-49
2021/10/27 04:21:42;;;;;;;36.20;17.50;;;;;;;11.42;100.00;100963.16;7400764;19;20444;-52
2021/10/27 04:24:11;;;;;;;31.07;18.63;;;;;;;11.41;100.00;100961.41;7397342;19;20390;-50
2021/10/27 04:26:41;;;;;;;35.17;16.20;;;;;;;11.40;100.00;100958.75;7403126;19;20394;-49
2021/10/27 04:29:10;;;;;;;38.43;17.93;;;;;;;11.42;100.00;100955.41;7396824;19;20455;-52
2021/10/27 04:31:39;;;;;;;34.43;19.50;;;;;;;11.40;100.00;100954.47;7400458;19;20418;-49
2021/10/27 04:34:09;;;;;;;31.30;17.60;;;;;;;11.38;100.00;100950.06;7396338;19;20376;-52
2021/10/27 04:36:41;;;;;;;34.07;17.37;;;;;;;11.36;100.00;100949.97;7402732;19;20398;-50
2021/10/27 04:39:10;;;;;;;34.03;18.00;;;;;;;11.40;100.00;100949.31;7395604;19;20448;-46
2021/10/27 04:41:40;;;;;;;37.93;14.93;;;;;;;11.40;100.00;100948.41;7400289;19;20893;-46
2021/10/27 04:44:10;;;;;;;26.00;14.27;;;;;;;11.38;100.00;100952.63;7396321;19;20447;-46
2021/10/27 04:46:39;;;;;;;37.77;18.83;;;;;;;11.39;100.00;100947.50;7402775;19;20403;-45
2021/10/27 04:49:09;;;;;;;37.73;18.90;;;;;;;11.40;100.00;100954.47;7403243;19;20853;-46
2021/10/27 04:51:38;;;;;;;39.13;17.83;;;;;;;11.41;100.00;100961.41;7400058;19;20430;-45
2021/10/27 04:54:10;;;;;;;31.57;18.07;;;;;;;11.42;100.00;100963.16;7396294;19;20390;-47
2021/10/27 04:56:40;;;;;;;36.27;19.57;;;;;;;11.44;100.00;100963.22;7402334;19;20451;-45
2021/10/27 04:59:10;;;;;;;36.97;15.67;;;;;;;11.41;100.00;100963.97;7395843;19;20451;-48
2021/10/27 05:01:39;;;;;;;41.53;20.30;;;;;;;11.45;100.00;100963.25;7399639;19;20487;-47
2021/10/27 05:04:09;;;;;;;38.00;18.30;;;;;;;11.48;100.00;100968.56;7395995;19;20380;-46
2021/10/27 05:06:39;;;;;;;43.10;19.27;;;;;;;11.48;100.00;100981.50;7401894;19;20443;-48
2021/10/27 05:09:11;;;;;;;32.20;17.77;;;;;;;11.50;100.00;100971.22;7395219;19;20402;-47
2021/10/27 05:11:41;;;;;;;34.47;17.97;;;;;;;11.50;100.00;100975.50;7397897;19;20411;-46
2021/10/27 05:14:11;;;;;;;31.83;18.37;;;;;;;11.53;100.00;100983.41;7399666;19;20468;-48
2021/10/27 05:16:41;;;;;;;30.57;15.23;;;;;;;11.51;100.00;100977.25;7401438;19;20884;-47
2021/10/27 05:19:10;;;;;;;44.33;19.57;;;;;;;11.52;100.00;100979.03;7395326;19;20447;-46
2021/10/27 05:21:40;;;;;;;31.30;12.07;;;;;;;11.51;100.00;100987.59;7399191;19;20764;-46
2021/10/27 05:24:12;;;;;;;39.53;18.17;;;;;;;11.53;100.00;100973.06;7395162;19;20387;-47
2021/10/27 05:26:41;;;;;;;36.73;18.87;;;;;;;11.53;100.00;100971.34;7402326;19;20402;-47
2021/10/27 05:29:11;;;;;;;41.43;19.20;;;;;;;11.60;100.00;100969.91;7396848;19;20395;-46
2021/10/27 05:31:40;;;;;;;47.60;18.67;;;;;;;11.55;100.00;100974.00;7398865;19;20433;-47
2021/10/27 05:34:10;;;;;;;37.40;18.57;;;;;;;11.56;100.00;100980.94;7394835;19;20733;-46
2021/10/27 05:36:41;;;;;;;31.80;15.83;;;;;;;11.56;100.00;100978.34;7400834;19;20443;-46
2021/10/27 05:39:13;;;;;;;39.10;19.13;;;;;;;11.59;100.00;100983.66;7395141;19;20622;-46
2021/10/27 05:41:48;;;;;;;35.13;17.50;;;;;;;11.56;100.00;100980.94;7399052;19;20423;-46
2021/10/27 05:44:19;;;;;;;33.03;16.90;;;;;;;11.55;100.00;100979.16;7394646;19;20510;-48
2021/10/27 05:46:51;;;;;;;37.37;17.97;;;;;;;11.52;100.00;100971.28;7400747;19;20490;-47
2021/10/27 05:49:25;;;;;;;25.57;11.80;;;;;;;11.55;100.00;100979.16;7393479;19;20690;-47
2021/10/27 05:52:01;;;;;;;38.60;19.20;;;;;;;11.54;100.00;100974.81;7401299;19;20420;-47
2021/10/27 05:57:15;;;;;;;38.80;19.53;;;;;;;11.53;100.00;100983.41;7400588;19;20389;-50
2021/10/27 05:59:47;;;;;;;32.57;16.87;;;;;;;11.52;100.00;100981.59;7393039;19;20507;-46
2021/10/27 06:02:16;;;;;;;32.53;18.67;;;;;;;11.49;100.00;100974.63;7400105;19;20376;-47
2021/10/27 06:04:46;;;;;;;33.60;14.53;;;;;;;11.48;100.00;100978.91;7393081;19;20502;-49
2021/10/27 06:07:15;;;;;;;30.47;15.40;;;;;;;11.50;100.00;100985.84;7400327;19;20392;-49
2021/10/27 06:09:48;;;;;;;40.10;17.70;;;;;;;11.48;100.00;100980.59;7392744;19;20423;-51
2021/10/27 06:12:18;;;;;;;43.60;20.23;;;;;;;11.47;100.00;100982.31;7400211;19;20460;-46
2021/10/27 06:14:48;;;;;;;40.07;19.30;;;;;;;11.45;100.00;100977.91;7393051;19;20419;-47
2021/10/27 06:17:18;;;;;;;33.17;17.23;;;;;;;11.47;100.00;100971.97;7399964;19;20444;-50
2021/10/27 06:19:50;;;;;;;38.17;18.70;;;;;;;11.46;100.00;100983.16;7392172;19;20418;-47
2021/10/27 06:22:20;;;;;;;37.83;19.60;;;;;;;11.46;100.00;100977.97;7398418;19;20674;-45
2021/10/27 06:24:53;;;;;;;32.37;15.27;;;;;;;11.44;100.00;100978.72;7393211;19;20410;-45
2021/10/27 06:27:23;;;;;;;32.07;17.20;;;;;;;11.44;100.00;100991.66;7400415;19;20399;-48
2021/10/27 06:29:56;;;;;;;34.30;17.57;;;;;;;11.41;100.00;100987.22;7392427;19;20415;-46
2021/10/27 06:32:33;;;;;;;37.47;20.00;;;;;;;11.43;100.00;100985.59;7399316;19;20866;-45
2021/10/27 06:35:06;;;;;;;32.70;18.70;;;;;;;11.42;100.00;100989.00;7392723;19;20426;-51
2021/10/27 06:37:52;;;;;;;27.50;17.87;;;;;;;11.43;100.00;100989.88;7399570;19;20463;-50
2021/10/27 06:46:24;;;;;;;30.40;15.90;;;;;;;11.41;100.00;100997.56;7395453;19;20510;-47
2021/10/27 06:48:54;;;;;;;34.77;17.97;;;;;;;11.44;100.00;100999.41;7402114;19;20455;-51
2021/10/27 06:51:24;;;;;;;33.63;18.00;;;;;;;11.44;100.00;100996.81;7400631;19;20464;-47
2021/10/27 06:53:53;;;;;;;54.47;19.00;;;;;;;11.43;100.00;100995.91;7398745;19;20395;-47
2021/10/27 06:56:25;;;;;;;32.60;18.73;;;;;;;11.47;100.00;100994.34;7399795;19;20447;-50
2021/10/27 06:59:00;;;;;;;31.50;16.63;;;;;;;11.45;100.00;100991.69;7398548;19;20384;-46
2021/10/27 07:01:34;;;;;;;23.30;13.10;;;;;;;11.45;100.00;100999.44;7396000;19;20471;-46
2021/10/27 07:06:58;;;;;;;38.33;16.27;;;;;;;11.44;100.00;100986.47;7398456;19;20398;-48
2021/10/27 07:15:07;;;;;;;33.77;18.40;;;;;;;11.49;100.00;100990.16;7387384;19;20403;-52
2021/10/27 07:17:38;;;;;;;26.07;11.43;;;;;;;11.50;100.00;100988.41;7397924;19;20454;-49
2021/10/27 07:20:09;;;;;;;33.67;19.10;;;;;;;11.47;100.00;100982.31;7390134;19;20449;-49
2021/10/27 07:22:39;;;;;;;34.50;16.37;;;;;;;11.50;100.00;100986.72;7402647;19;20491;-46
2021/10/27 07:25:10;;;;;;;34.30;17.70;;;;;;;11.49;100.00;100990.16;7391779;19;20444;-51
2021/10/27 07:27:42;;;;;;;37.60;19.30;;;;;;;11.51;100.00;100993.66;7397971;19;20455;-51
2021/10/27 07:30:13;;;;;;;28.93;15.97;;;;;;;11.49;100.00;100987.56;7390100;19;20491;-49
2021/10/27 07:32:43;;;;;;;38.87;17.77;;;;;;;11.50;100.00;100996.19;7399448;19;20542;-47
2021/10/27 07:35:23;;;;;;;42.57;18.90;;;;;;;11.52;100.00;101000.59;7396868;19;20494;-46
2021/10/27 07:40:38;;;;;;;32.20;17.17;;;;;;;11.55;100.00;101011.06;7395779;19;20466;-46
2021/10/27 07:43:13;;;;;;;33.80;12.57;;;;;;;11.57;100.00;101011.09;7404071;19;20388;-51
2021/10/27 07:45:44;;;;;;;32.17;15.80;;;;;;;11.60;100.00;101011.25;7397912;19;20766;-49
2021/10/27 07:48:14;;;;;;;37.50;19.50;;;;;;;11.56;100.00;101009.34;7405850;19;20467;-47
2021/10/27 07:50:43;;;;;;;29.73;16.67;;;;;;;11.58;100.00;101006.00;7395129;19;20403;-52
2021/10/27 07:53:15;;;;;;;42.70;18.30;;;;;;;11.59;100.00;101019.84;7404788;19;20640;-53
2021/10/27 07:55:46;;;;;;;28.60;13.80;;;;;;;11.60;100.00;101016.41;7397554;19;20495;-53
2021/10/27 07:58:19;;;;;;;36.13;18.23;;;;;;;11.60;100.00;101019.00;7404751;19;20448;-53
2021/10/27 08:00:49;;;;;;;36.60;20.53;;;;;;;11.64;100.00;101015.72;7394654;19;20740;-52
2021/10/27 08:03:19;;;;;;;40.50;20.30;;;;;;;11.64;100.00;101012.25;7403937;19;20407;-53
2021/10/27 08:05:49;;;;;;;40.23;18.00;;;;;;;11.65;100.00;101014.91;7397934;19;20427;-51
2021/10/27 08:08:22;;;;;;;42.00;19.27;;;;;;;11.68;100.00;101033.13;7404759;19;20467;-53
2021/10/27 08:10:53;;;;;;;36.93;15.50;;;;;;;11.71;100.00;101025.50;7395001;19;20886;-52
2021/10/27 08:13:25;;;;;;;40.23;18.90;;;;;;;11.75;100.00;101023.94;7403777;19;20391;-50
2021/10/27 08:15:55;;;;;;;37.77;16.57;;;;;;;11.74;100.00;101023.03;7396616;19;20732;-45
2021/10/27 08:18:25;;;;;;;34.90;19.33;;;;;;;11.77;100.00;101023.97;7403979;19;20894;-50
2021/10/27 08:20:54;;;;;;;37.87;21.37;;;;;;;11.81;100.00;101028.47;7393775;19;20868;-50
2021/10/27 08:23:28;;;;;;;38.20;17.53;;;;;;;11.79;100.00;101027.53;7403055;19;20388;-47
2021/10/27 08:26:02;;;;;;;38.73;19.27;;;;;;;11.81;100.00;101028.47;7395785;19;20415;-46
2021/10/27 08:28:38;;;;;;;34.43;19.70;;;;;;;11.79;100.00;101030.97;7403623;19;20459;-46
2021/10/27 08:31:10;;;;;;;35.00;18.77;;;;;;;11.79;100.00;101035.28;7393852;19;20482;-47
2021/10/27 08:33:49;;;;;;;40.83;18.90;;;;;;;11.82;100.00;101028.53;7403013;19;20390;-45
2021/10/27 08:36:19;;;;;;;36.20;18.53;;;;;;;11.87;100.00;101029.59;7395581;19;20678;-45
2021/10/27 08:38:49;;;;;;;34.07;18.40;;;;;;;11.91;100.00;101028.03;7403295;19;20463;-47
2021/10/27 08:41:40;;;;;;;49.20;22.30;;;;;;;11.87;100.00;101019.25;7403514;19;20489;-46
2021/10/27 08:44:12;;;;;;;40.40;19.67;;;;;;;11.90;100.00;101028.84;7396703;19;20820;-46
2021/10/27 08:46:43;;;;;;;40.10;21.50;;;;;;;11.94;100.00;101025.56;7402155;19;20402;-45
2021/10/27 08:49:13;;;;;;;36.60;20.87;;;;;;;11.96;100.00;101029.09;7394233;19;20427;-46
2021/10/27 08:51:43;;;;;;;42.40;23.00;;;;;;;11.97;100.00;101033.44;7398214;19;20424;-45
2021/10/27 08:54:12;;;;;;;29.80;18.27;;;;;;;11.95;100.00;101027.31;7393907;19;20459;-46
2021/10/27 08:56:44;;;;;;;24.63;14.27;;;;;;;12.00;100.00;101032.69;7401140;19;20842;-45
2021/10/27 08:59:21;;;;;;;30.53;18.47;;;;;;;12.00;100.00;101024.94;7392973;19;20398;-47
2021/10/27 09:02:08;;;;;;;25.57;15.10;;;;;;;11.99;100.00;101034.38;7398058;19;20415;-48
2021/10/27 09:04:56;;;;;;;37.93;19.07;;;;;;;12.01;100.00;101024.97;7392574;19;20483;-46
2021/10/27 09:07:31;;;;;;;33.60;19.53;;;;;;;12.08;100.00;101027.84;7398862;19;20419;-46
2021/10/27 09:10:20;;;;;;;28.30;14.50;;;;;;;12.11;100.00;101028.84;7393861;19;20531;-47
2021/10/27 09:16:11;;;;;;;31.73;17.80;;;;;;;12.11;100.00;101021.06;7396043;19;20453;-45
2021/10/27 09:35:49;;;;;;;33.77;15.77;;;;;;;12.06;100.00;101024.31;7393055;19;20403;-44
2021/10/27 10:06:09;;;;;;;22.40;12.40;;;;;;;12.19;100.00;101031.75;7392666;19;20407;-43
2021/10/27 10:08:38;;;;;;;22.07;12.23;;;;;;;12.18;100.00;101039.44;7400372;19;20388;-44
2021/10/27 10:11:08;;;;;;;23.83;15.07;;;;;;;12.15;100.00;101041.09;7391200;19;20419;-44
2021/10/27 10:13:38;;;;;;;19.33;8.83;;;;;;;12.17;100.00;101043.75;7400097;19;20456;-43
2021/10/27 10:16:08;;;;;;;33.23;14.10;;;;;;;12.22;100.00;101037.03;7392614;19;20910;-43
2021/10/27 10:18:39;;;;;;;22.03;13.80;;;;;;;12.23;100.00;101037.91;7399886;19;20383;-46
2021/10/27 10:21:13;;;;;;;25.97;13.50;;;;;;;12.26;100.00;101041.50;7390858;19;20411;-48
2021/10/27 10:23:43;;;;;;;23.70;14.90;;;;;;;12.33;100.00;101033.97;7400040;19;20403;-47
2021/10/27 10:26:14;;;;;;;24.30;15.10;;;;;;;12.33;100.00;101041.75;7390309;19;20449;-45
2021/10/27 10:28:45;;;;;;;26.73;16.47;;;;;;;12.37;100.00;101041.91;7399893;19;20859;-44
2021/10/27 10:31:36;;;;;;;20.50;10.47;;;;;;;12.41;100.00;101048.13;7390289;19;20709;-44
2021/10/27 10:34:09;;;;;;;21.77;13.37;;;;;;;12.46;100.00;101041.38;7394351;19;20392;-45
2021/10/27 10:36:45;;;;;;;24.17;14.70;;;;;;;12.47;100.00;101043.19;7400086;19;20402;-48
2021/10/27 10:39:37;;;;;;;20.33;13.00;;;;;;;12.52;100.00;101049.38;7392243;19;20379;-47
2021/10/27 10:56:26;;;;;;;14.40;8.43;;;;;;;12.65;100.00;101047.28;7391943;19;20415;-48
2021/10/27 11:26:07;;;;;;;27.03;13.90;;;;;;;12.65;100.00;101083.50;7396428;19;20431;-52
2021/10/27 11:39:44;;;;;;;23.37;14.60;;;;;;;12.67;100.00;101084.47;7397095;19;20411;-44
2021/10/27 11:42:36;;;;;;;23.07;14.90;;;;;;;12.61;100.00;101094.59;7402728;19;20429;-44
2021/10/27 11:45:21;;;;;;;20.27;14.50;;;;;;;12.58;100.00;101084.09;7398421;19;20510;-44
2021/10/27 11:47:54;;;;;;;24.10;15.27;;;;;;;12.61;100.00;101089.41;7404949;19;20379;-46
2021/10/27 11:50:24;;;;;;;23.10;14.20;;;;;;;12.61;100.00;101082.50;7397184;19;20434;-44
2021/10/27 11:52:55;;;;;;;22.83;15.40;;;;;;;12.64;100.00;101077.47;7404998;19;20404;-44
2021/10/27 11:55:24;;;;;;;23.27;13.37;;;;;;;12.65;100.00;101076.63;7397094;19;20786;-43
2021/10/27 11:57:56;;;;;;;19.00;13.90;;;;;;;12.68;100.00;101078.47;7404562;19;20405;-45
2021/10/27 12:00:31;;;;;;;22.53;15.00;;;;;;;12.72;100.00;101080.31;7395350;19;20927;-44
2021/10/27 12:03:06;;;;;;;29.83;14.80;;;;;;;12.72;100.00;101069.09;7404717;19;20387;-48
2021/10/27 12:05:43;;;;;;;23.67;15.67;;;;;;;12.68;100.00;101057.75;7399146;19;20498;-46
2021/10/27 12:11:12;;;;;;;21.13;14.50;;;;;;;12.71;100.00;101080.28;7394611;19;20951;-47
2021/10/27 12:13:52;;;;;;;20.37;13.70;;;;;;;12.71;100.00;101073.38;7404073;19;20392;-47
2021/10/27 12:16:45;;;;;;;19.97;12.10;;;;;;;12.72;100.00;101075.16;7403286;19;20430;-43
2021/10/27 12:19:17;;;;;;;33.23;16.53;;;;;;;12.72;100.00;101072.56;7395152;19;20403;-45
2021/10/27 12:21:52;;;;;;;20.47;13.10;;;;;;;12.70;100.00;101071.63;7401279;19;20435;-44
2021/10/27 12:24:24;;;;;;;20.83;14.27;;;;;;;12.68;100.00;101068.09;7395793;19;20425;-47
2021/10/27 12:27:00;;;;;;;28.97;15.50;;;;;;;12.70;100.00;101071.63;7401517;19;20439;-45
2021/10/27 12:29:34;;;;;;;23.87;14.47;;;;;;;12.66;100.00;101073.22;7395597;19;20425;-45
2021/10/27 12:32:10;;;;;;;20.90;14.47;;;;;;;12.66;100.00;101070.63;7400851;19;20412;-45
2021/10/27 12:34:48;;;;;;;24.80;15.83;;;;;;;12.65;100.00;101065.38;7395600;19;20483;-46
2021/10/27 12:37:27;;;;;;;23.00;15.67;;;;;;;12.67;100.00;101066.34;7403302;19;20400;-45
2021/10/27 12:40:15;;;;;;;19.33;12.57;;;;;;;12.69;100.00;101069.88;7394502;19;20411;-45
2021/10/27 12:42:45;;;;;;;19.57;12.27;;;;;;;12.69;100.00;101067.28;7408030;19;20463;-46
2021/10/27 12:45:17;;;;;;;24.97;13.00;;;;;;;12.69;100.00;101055.22;7395161;19;20482;-45
2021/10/27 12:47:47;;;;;;;29.90;14.50;;;;;;;12.68;100.00;101068.09;7402713;19;20390;-45
2021/10/27 12:50:18;;;;;;;23.20;14.03;;;;;;;12.69;100.00;101059.50;7393797;19;20872;-45
2021/10/27 12:52:53;;;;;;;22.17;13.90;;;;;;;12.67;100.00;101062.03;7402777;19;20408;-47
2021/10/27 12:55:29;;;;;;;20.90;13.43;;;;;;;12.66;100.00;101065.47;7395286;19;20423;-45
2021/10/27 12:58:04;;;;;;;16.40;11.60;;;;;;;12.64;100.00;101068.81;7402729;19;20388;-43
2021/10/27 13:00:52;;;;;;;27.07;14.90;;;;;;;12.61;100.00;101063.53;7393840;19;20417;-44
2021/10/27 13:12:11;;;;;;;22.10;14.20;;;;;;;12.48;100.00;101065.66;7398865;19;20506;-44
2021/10/27 13:14:47;;;;;;;20.30;11.50;;;;;;;12.47;100.00;101063.00;7394692;19;20482;-44
2021/10/27 13:20:32;;;;;;;25.63;15.07;;;;;;;12.50;100.00;101058.81;7392745;19;20421;-46
2021/10/27 13:31:10;;;;;;;16.20;10.10;;;;;;;12.54;100.00;101076.22;7389542;19;20399;-44
2021/10/27 13:33:42;;;;;;;20.40;13.33;;;;;;;12.54;100.00;101076.22;7401400;19;20669;-44
2021/10/27 13:36:15;;;;;;;21.53;14.13;;;;;;;12.52;100.00;101077.84;7397817;19;20451;-44
2021/10/27 13:38:46;;;;;;;23.70;14.60;;;;;;;12.50;100.00;101074.34;7401503;19;21223;-43
2021/10/27 13:41:15;;;;;;;25.90;16.07;;;;;;;12.47;100.00;101073.34;7391041;19;20432;-49
2021/10/27 13:43:50;;;;;;;23.20;14.27;;;;;;;12.43;100.00;101075.78;7403603;19;20409;-48
2021/10/27 13:46:34;;;;;;;21.40;14.50;;;;;;;12.48;100.00;101070.81;7396874;19;20590;-44